Terminal Aerodrome Forecast
Issued by NWS Grand Rapids, MI

Home | Current Version | Previous Version | Text Only | Print | Product List | Glossary On
Versions: 1 2 3 4 5 6 7 8 9 10 11 12 13 14 15 16 17 18
836
FTUS43 KGRR 272115 AAA
TAFGRR
TAF AMD
KGRR 272115Z 2721/2818 28010KT P6SM SCT045
     FM272130 04010KT P6SM VCTS BKN040CB
     FM280000 08007KT P6SM SCT050
     FM280700 04003KT 6SM BR VCSH SCT040 BKN100
     FM281600 06006KT P6SM VCTS BKN040CB=

USA.gov is the U.S. government's official web portal to all federal, state and local government web resources and services.